Time;durP1;ratioP1;P1;durP2;ratioP2;P2;SDS_P1;SDS_P2;PMS_P1;PMS_P2;Temp;Humidity;BMP_temperature;BMP_pressure;BME280_temperature;BME280_humidity;BME280_pressure;Samples;Min_cycle;Max_cycle;Signal;HPM_P1;HPM_P2
2022/08/09 00:00:07;;;;;;;0.00;0.00;;;16.90;99.90;;;;;;5040028;28;20499;-68
2022/08/09 00:02:32;;;;;;;0.10;0.10;;;16.90;99.90;;;;;;5050729;28;20060;-68
2022/08/09 00:04:59;;;;;;;0.00;0.00;;;16.80;99.90;;;;;;5045096;28;20049;-68
2022/08/09 00:07:24;;;;;;;0.10;0.10;;;16.80;99.90;;;;;;5044933;28;20077;-68
2022/08/09 00:09:50;;;;;;;0.30;0.30;;;16.80;99.90;;;;;;5027840;28;20154;-68
2022/08/09 00:12:15;;;;;;;0.10;0.10;;;16.80;99.90;;;;;;5046537;28;20044;-68
2022/08/09 00:14:41;;;;;;;0.20;0.20;;;16.70;99.90;;;;;;5034439;28;20074;-68
2022/08/09 00:17:06;;;;;;;0.20;0.20;;;16.80;99.90;;;;;;5036650;28;20044;-67
2022/08/09 00:19:32;;;;;;;0.98;0.75;;;16.70;99.90;;;;;;5046148;28;20076;-68
2022/08/09 00:21:58;;;;;;;3.10;0.45;;;16.70;99.90;;;;;;5037080;28;20724;-68
2022/08/09 00:24:24;;;;;;;0.22;0.22;;;16.70;99.90;;;;;;5046776;28;20456;-68
2022/08/09 00:26:50;;;;;;;0.10;0.10;;;16.70;99.90;;;;;;5043513;28;20056;-68
2022/08/09 00:29:16;;;;;;;2.25;0.45;;;16.70;99.90;;;;;;5045341;28;20480;-68
2022/08/09 00:31:41;;;;;;;0.13;0.13;;;16.60;99.90;;;;;;5063384;28;20052;-68
2022/08/09 00:34:07;;;;;;;0.03;0.03;;;16.70;99.90;;;;;;5043030;28;20132;-68
2022/08/09 00:36:33;;;;;;;0.00;0.00;;;16.60;99.90;;;;;;5037646;28;20616;-68
2022/08/09 00:38:58;;;;;;;0.13;0.13;;;16.60;99.90;;;;;;5040785;28;20037;-68
2022/08/09 00:41:24;;;;;;;0.00;0.00;;;16.50;99.90;;;;;;5058214;28;20118;-68
2022/08/09 00:43:50;;;;;;;0.47;0.45;;;16.50;99.90;;;;;;5033164;28;20087;-68
2022/08/09 00:46:17;;;;;;;0.10;0.10;;;16.40;99.90;;;;;;5036967;28;20074;-68
2022/08/09 00:48:43;;;;;;;0.90;0.68;;;16.40;99.90;;;;;;5033235;28;20042;-68
2022/08/09 00:51:09;;;;;;;0.52;0.52;;;16.40;99.90;;;;;;5032328;28;20444;-68
2022/08/09 00:53:35;;;;;;;0.17;0.17;;;16.40;99.90;;;;;;5054043;28;20049;-68
2022/08/09 00:56:03;;;;;;;0.28;0.28;;;16.40;99.90;;;;;;5035090;28;20148;-68
2022/08/09 00:58:34;;;;;;;0.10;0.10;;;16.30;99.90;;;;;;5039179;28;20040;-67
2022/08/09 01:01:06;;;;;;;0.10;0.10;;;16.30;99.90;;;;;;5041501;28;20053;-68
2022/08/09 01:03:58;;;;;;;6.22;1.85;;;16.30;99.90;;;;;;5030839;28;20057;-67
2022/08/09 01:06:43;;;;;;;3.03;0.70;;;16.30;99.90;;;;;;5030344;28;20413;-68
2022/08/09 01:09:15;;;;;;;0.20;0.20;;;16.30;99.90;;;;;;5038647;28;20041;-67
2022/08/09 01:11:48;;;;;;;0.10;0.10;;;16.30;99.90;;;;;;5039327;28;20055;-68
2022/08/09 01:14:44;;;;;;;0.30;0.30;;;16.20;99.90;;;;;;5059946;28;20052;-68
2022/08/09 01:17:28;;;;;;;0.00;0.00;;;16.20;99.90;;;;;;5029640;28;20854;-68
2022/08/09 01:19:58;;;;;;;0.10;0.10;;;16.30;99.90;;;;;;5044766;28;20045;-68
2022/08/09 01:22:32;;;;;;;0.10;0.10;;;16.30;99.90;;;;;;5062591;28;20048;-68
2022/08/09 01:25:35;;;;;;;0.40;0.40;;;16.20;99.90;;;;;;5045301;28;20053;-68
2022/08/09 01:28:05;;;;;;;0.20;0.20;;;16.10;99.90;;;;;;5043143;28;20103;-68
2022/08/09 01:30:33;;;;;;;1.17;1.08;;;16.10;99.90;;;;;;5052927;28;20297;-68
2022/08/09 01:33:00;;;;;;;0.00;0.00;;;16.10;99.90;;;;;;5047271;28;20127;-68
2022/08/09 01:35:58;;;;;;;0.03;0.03;;;16.10;99.90;;;;;;5029868;28;20509;-68
2022/08/09 01:38:28;;;;;;;0.10;0.10;;;16.10;99.90;;;;;;5038967;28;20081;-68
2022/08/09 01:41:12;;;;;;;0.05;0.05;;;16.10;99.90;;;;;;5031212;28;20073;-68
2022/08/09 01:43:42;;;;;;;0.03;0.03;;;16.10;99.90;;;;;;5043108;28;20044;-68
2022/08/09 01:46:10;;;;;;;0.10;0.10;;;16.10;99.90;;;;;;5045331;28;20041;-68
2022/08/09 01:48:35;;;;;;;0.10;0.10;;;16.00;99.90;;;;;;5043085;28;20119;-68
2022/08/09 01:51:02;;;;;;;0.00;0.00;;;16.10;99.90;;;;;;5056655;28;20461;-67
2022/08/09 01:53:29;;;;;;;0.40;0.40;;;16.00;99.90;;;;;;5047520;28;20079;-68
2022/08/09 01:55:55;;;;;;;0.10;0.10;;;16.00;99.90;;;;;;5037584;28;20053;-68
2022/08/09 01:58:22;;;;;;;0.10;0.10;;;16.00;99.90;;;;;;5039866;28;20123;-68
2022/08/09 02:00:49;;;;;;;0.55;0.55;;;15.90;99.90;;;;;;5039372;28;20049;-68
2022/08/09 02:03:17;;;;;;;0.05;0.05;;;15.90;99.90;;;;;;5041414;28;20420;-68
2022/08/09 02:05:44;;;;;;;0.88;0.65;;;15.90;99.90;;;;;;5035925;28;20158;-68
2022/08/09 02:08:14;;;;;;;0.00;0.00;;;15.90;99.90;;;;;;5043570;28;20071;-68
2022/08/09 02:10:44;;;;;;;0.30;0.28;;;15.80;99.90;;;;;;5062998;28;20685;-67
2022/08/09 02:13:11;;;;;;;0.45;0.20;;;15.80;99.90;;;;;;5054214;28;20120;-68
2022/08/09 02:15:40;;;;;;;0.20;0.20;;;15.80;99.90;;;;;;5044912;28;20373;-68
2022/08/09 02:18:07;;;;;;;0.10;0.10;;;15.80;99.90;;;;;;5046670;28;20033;-68
2022/08/09 02:20:37;;;;;;;0.25;0.25;;;15.80;99.90;;;;;;5034713;28;20565;-67
2022/08/09 02:23:11;;;;;;;0.55;0.55;;;15.80;99.90;;;;;;5038985;28;20125;-67
2022/08/09 02:25:40;;;;;;;0.08;0.08;;;15.80;99.90;;;;;;5028918;28;20103;-67
2022/08/09 02:28:19;;;;;;;0.10;0.10;;;15.80;99.90;;;;;;5037649;28;20037;-68
2022/08/09 02:31:02;;;;;;;0.00;0.00;;;15.80;99.90;;;;;;5046170;28;20079;-67
2022/08/09 02:33:31;;;;;;;1.85;0.30;;;15.70;99.90;;;;;;5055786;28;20053;-67
2022/08/09 02:35:59;;;;;;;0.17;0.17;;;15.70;99.90;;;;;;5043041;28;20052;-67
2022/08/09 02:38:33;;;;;;;0.20;0.20;;;15.60;99.90;;;;;;5043698;28;20048;-68
2022/08/09 02:41:05;;;;;;;0.00;0.00;;;15.60;99.90;;;;;;5045280;28;20091;-68
2022/08/09 02:43:33;;;;;;;0.13;0.08;;;15.60;99.90;;;;;;5040936;28;20504;-67
2022/08/09 02:46:00;;;;;;;0.10;0.10;;;15.50;99.90;;;;;;5031855;28;20076;-68
2022/08/09 02:48:28;;;;;;;0.52;0.47;;;15.50;99.90;;;;;;5045749;28;20033;-68
2022/08/09 02:50:57;;;;;;;0.10;0.10;;;15.50;99.90;;;;;;5045073;28;20075;-68
2022/08/09 02:53:27;;;;;;;0.38;0.38;;;15.50;99.90;;;;;;5040746;28;20045;-68
2022/08/09 02:55:56;;;;;;;0.00;0.00;;;15.50;99.90;;;;;;5039156;28;20148;-67
2022/08/09 02:58:25;;;;;;;0.13;0.13;;;15.50;99.90;;;;;;5047485;28;20037;-68
2022/08/09 03:00:52;;;;;;;0.13;0.13;;;15.50;99.90;;;;;;5043312;28;20411;-67
2022/08/09 03:03:19;;;;;;;0.32;0.30;;;15.40;99.90;;;;;;5044184;28;20449;-67
2022/08/09 03:05:45;;;;;;;0.52;0.25;;;15.40;99.90;;;;;;5046764;28;20049;-68
2022/08/09 03:08:12;;;;;;;0.38;0.38;;;15.40;99.90;;;;;;5052990;28;20054;-68
2022/08/09 03:10:40;;;;;;;0.22;0.22;;;15.40;99.90;;;;;;5033989;28;20766;-68
2022/08/09 03:13:06;;;;;;;0.10;0.10;;;15.40;99.90;;;;;;5035899;28;20033;-68
2022/08/09 03:15:32;;;;;;;0.00;0.00;;;15.40;99.90;;;;;;5038249;28;20088;-68
2022/08/09 03:17:59;;;;;;;0.00;0.00;;;15.40;99.90;;;;;;5047237;28;20056;-68
2022/08/09 03:20:26;;;;;;;0.17;0.17;;;15.40;99.90;;;;;;5045746;28;20080;-68
2022/08/09 03:22:53;;;;;;;0.25;0.25;;;15.40;99.90;;;;;;5040188;28;20037;-68
2022/08/09 03:25:19;;;;;;;0.45;0.32;;;15.40;99.90;;;;;;5029739;28;20493;-68
2022/08/09 03:27:47;;;;;;;0.10;0.10;;;15.40;99.90;;;;;;5042699;28;20124;-67
2022/08/09 03:30:14;;;;;;;0.10;0.10;;;15.40;99.90;;;;;;5044141;28;20488;-67
2022/08/09 03:32:41;;;;;;;0.47;0.47;;;15.30;99.90;;;;;;5042168;28;20047;-67
2022/08/09 03:35:10;;;;;;;0.35;0.35;;;15.30;99.90;;;;;;5032827;28;20037;-68
2022/08/09 03:37:39;;;;;;;0.22;0.22;;;15.30;99.90;;;;;;5039779;28;20748;-68
2022/08/09 03:40:06;;;;;;;0.10;0.10;;;15.30;99.90;;;;;;5042333;28;20077;-68
2022/08/09 03:42:32;;;;;;;0.10;0.10;;;15.30;99.90;;;;;;5040855;28;20090;-68
2022/08/09 03:44:58;;;;;;;0.20;0.20;;;15.30;99.90;;;;;;5048052;28;20410;-68
2022/08/09 03:47:23;;;;;;;1.45;0.75;;;15.30;99.90;;;;;;5046771;28;20055;-68
2022/08/09 03:49:50;;;;;;;3.00;2.30;;;15.30;99.90;;;;;;5053055;28;20042;-68
2022/08/09 03:52:18;;;;;;;0.22;0.22;;;15.30;99.90;;;;;;5058376;28;20037;-68
2022/08/09 03:54:46;;;;;;;0.28;0.28;;;15.30;99.90;;;;;;5043091;28;20038;-68
2022/08/09 03:57:13;;;;;;;0.00;0.00;;;15.30;99.90;;;;;;5049346;28;21798;-68
2022/08/09 03:59:40;;;;;;;0.10;0.10;;;15.30;99.90;;;;;;5054453;28;20073;-68
2022/08/09 04:02:06;;;;;;;0.10;0.10;;;15.30;99.90;;;;;;5046543;28;20454;-68
2022/08/09 04:04:33;;;;;;;0.10;0.10;;;15.20;99.90;;;;;;5055892;28;20049;-68
2022/08/09 04:06:58;;;;;;;3.10;0.82;;;15.20;99.90;;;;;;5066118;28;20123;-68
2022/08/09 04:09:24;;;;;;;0.10;0.10;;;15.20;99.90;;;;;;5047328;28;20123;-67
2022/08/09 04:12:22;;;;;;;0.10;0.10;;;15.20;99.90;;;;;;5048293;28;20049;-68
2022/08/09 04:14:47;;;;;;;0.30;0.30;;;15.20;99.90;;;;;;5035540;28;20056;-68
2022/08/09 04:17:13;;;;;;;0.10;0.10;;;15.10;99.90;;;;;;5042797;28;20489;-68
2022/08/09 04:19:38;;;;;;;0.05;0.05;;;15.10;99.90;;;;;;5045334;28;20029;-67
2022/08/09 04:22:04;;;;;;;0.35;0.35;;;15.10;99.90;;;;;;5046333;28;20561;-67
2022/08/09 04:24:30;;;;;;;0.10;0.10;;;15.10;99.90;;;;;;5033930;28;20476;-68
2022/08/09 04:26:56;;;;;;;0.10;0.10;;;15.10;99.90;;;;;;5046471;28;20571;-67
2022/08/09 04:29:22;;;;;;;0.30;0.30;;;15.10;99.90;;;;;;5044721;28;20037;-67
2022/08/09 04:31:47;;;;;;;0.10;0.10;;;15.10;99.90;;;;;;5031427;28;20041;-68
2022/08/09 04:34:13;;;;;;;0.13;0.13;;;15.10;99.90;;;;;;5047224;28;20048;-68
2022/08/09 04:36:39;;;;;;;0.00;0.00;;;15.10;99.90;;;;;;5042183;28;20045;-68
2022/08/09 04:39:09;;;;;;;0.08;0.08;;;15.10;99.90;;;;;;5045283;28;20055;-68
2022/08/09 04:41:35;;;;;;;0.20;0.20;;;15.10;99.90;;;;;;5046851;28;20037;-68
2022/08/09 04:44:04;;;;;;;0.00;0.00;;;15.10;99.90;;;;;;5041025;28;20079;-68
2022/08/09 04:46:30;;;;;;;0.10;0.10;;;15.10;99.90;;;;;;5048607;28;20048;-68
2022/08/09 04:48:55;;;;;;;0.00;0.00;;;15.10;99.90;;;;;;5047633;28;20032;-68
2022/08/09 04:51:21;;;;;;;1.45;0.32;;;15.10;99.90;;;;;;5052700;28;20524;-68
2022/08/09 04:53:47;;;;;;;0.13;0.13;;;15.10;99.90;;;;;;5040701;28;20040;-68
2022/08/09 04:56:12;;;;;;;0.20;0.20;;;15.10;99.90;;;;;;5046495;28;20040;-68
2022/08/09 04:58:38;;;;;;;0.10;0.10;;;15.10;99.90;;;;;;5046086;28;20037;-68
2022/08/09 05:01:04;;;;;;;0.00;0.00;;;15.20;99.90;;;;;;5034279;28;20092;-68
2022/08/09 05:03:29;;;;;;;1.55;0.40;;;15.20;99.90;;;;;;5041467;28;20155;-68
2022/08/09 05:05:55;;;;;;;0.00;0.00;;;15.30;99.90;;;;;;5050153;28;20128;-68
2022/08/09 05:08:21;;;;;;;0.30;0.28;;;15.30;99.90;;;;;;5033294;28;20044;-68
2022/08/09 05:10:46;;;;;;;0.13;0.13;;;15.40;99.90;;;;;;5044930;28;20069;-68
2022/08/09 05:13:12;;;;;;;0.10;0.10;;;15.40;99.90;;;;;;5031336;28;20522;-68
2022/08/09 05:15:38;;;;;;;0.10;0.10;;;15.40;99.90;;;;;;5037980;28;20418;-68
2022/08/09 05:18:03;;;;;;;0.30;0.30;;;15.50;99.90;;;;;;5042012;28;20401;-68
2022/08/09 05:20:29;;;;;;;0.10;0.10;;;15.50;99.90;;;;;;5048597;28;20235;-68
2022/08/09 05:22:55;;;;;;;0.10;0.10;;;15.60;99.90;;;;;;5046001;28;20044;-68
2022/08/09 05:25:22;;;;;;;0.10;0.10;;;15.70;99.90;;;;;;5038488;28;20044;-68
2022/08/09 05:27:49;;;;;;;0.10;0.10;;;15.70;99.90;;;;;;5040409;28;20044;-68
2022/08/09 05:30:16;;;;;;;0.70;0.30;;;15.70;99.90;;;;;;5062992;28;20056;-68
2022/08/09 05:32:42;;;;;;;0.20;0.20;;;15.80;99.90;;;;;;5030389;28;20061;-68
2022/08/09 05:35:08;;;;;;;0.22;0.22;;;15.80;99.90;;;;;;5040590;28;20161;-68
2022/08/09 05:37:34;;;;;;;0.55;0.40;;;15.90;99.90;;;;;;5033828;28;20034;-68
2022/08/09 05:40:00;;;;;;;0.20;0.20;;;15.90;99.90;;;;;;5033849;28;20075;-68
2022/08/09 05:42:25;;;;;;;0.10;0.10;;;16.00;99.90;;;;;;5043448;28;20051;-68
2022/08/09 05:44:52;;;;;;;0.20;0.20;;;16.10;99.90;;;;;;5047250;28;20580;-68
2022/08/09 05:47:20;;;;;;;0.10;0.10;;;16.10;99.90;;;;;;5038322;28;20048;-68
2022/08/09 05:49:45;;;;;;;0.17;0.17;;;16.10;99.90;;;;;;5043259;28;20053;-68
2022/08/09 05:52:11;;;;;;;0.10;0.10;;;16.20;99.90;;;;;;5045561;28;20049;-68
2022/08/09 05:54:36;;;;;;;0.32;0.20;;;16.30;99.90;;;;;;5034952;28;20045;-68
2022/08/09 05:57:02;;;;;;;0.93;0.50;;;16.30;99.90;;;;;;5052257;28;20041;-68
2022/08/09 05:59:27;;;;;;;0.30;0.30;;;16.40;99.90;;;;;;5036256;28;20143;-68
2022/08/09 06:01:53;;;;;;;0.10;0.10;;;16.40;99.90;;;;;;5036409;28;20056;-68
2022/08/09 06:04:18;;;;;;;0.05;0.05;;;16.50;99.90;;;;;;5043894;28;20078;-68
2022/08/09 06:06:44;;;;;;;0.10;0.10;;;16.50;99.90;;;;;;5032353;28;20452;-68
2022/08/09 06:09:10;;;;;;;0.10;0.10;;;16.50;99.90;;;;;;5046146;28;20404;-68
2022/08/09 06:11:35;;;;;;;0.00;0.00;;;16.60;99.90;;;;;;5045229;28;20473;-68
2022/08/09 06:14:01;;;;;;;0.00;0.00;;;16.60;99.90;;;;;;5038788;28;20041;-68
2022/08/09 06:16:28;;;;;;;0.00;0.00;;;16.70;99.90;;;;;;5037346;28;20056;-68
2022/08/09 06:18:54;;;;;;;0.10;0.10;;;16.70;99.90;;;;;;5058874;28;20064;-68
2022/08/09 06:21:19;;;;;;;0.00;0.00;;;16.80;99.90;;;;;;5039077;28;20042;-68
2022/08/09 06:23:46;;;;;;;0.10;0.10;;;16.80;99.90;;;;;;5040986;28;20049;-68
2022/08/09 06:26:12;;;;;;;0.10;0.10;;;16.80;99.90;;;;;;5041234;28;20043;-68
2022/08/09 06:28:39;;;;;;;0.00;0.00;;;16.90;99.90;;;;;;5042046;28;20580;-68
2022/08/09 06:31:04;;;;;;;0.03;0.03;;;17.00;99.90;;;;;;5047656;28;20453;-68
2022/08/09 06:33:30;;;;;;;0.00;0.00;;;17.00;99.90;;;;;;5035358;28;20048;-68
2022/08/09 06:35:55;;;;;;;0.20;0.20;;;17.10;99.90;;;;;;5059149;28;20041;-68
2022/08/09 06:38:21;;;;;;;0.05;0.05;;;17.10;99.90;;;;;;5046660;28;20476;-67
2022/08/09 06:40:46;;;;;;;0.00;0.00;;;17.20;99.90;;;;;;5040643;28;20056;-68
2022/08/09 06:43:12;;;;;;;0.08;0.08;;;17.30;99.90;;;;;;5038762;28;20044;-68
2022/08/09 06:45:38;;;;;;;0.00;0.00;;;17.30;99.90;;;;;;5034123;28;20238;-68
2022/08/09 06:48:04;;;;;;;0.20;0.20;;;17.40;99.90;;;;;;5045700;28;20054;-68
2022/08/09 06:50:29;;;;;;;0.00;0.00;;;17.40;99.90;;;;;;5032124;28;20041;-68
2022/08/09 06:52:55;;;;;;;0.10;0.10;;;17.50;99.90;;;;;;5045739;28;20071;-68
2022/08/09 06:55:22;;;;;;;0.00;0.00;;;17.60;99.90;;;;;;5046980;28;20136;-68
2022/08/09 06:57:48;;;;;;;0.00;0.00;;;17.60;99.90;;;;;;5041888;28;20441;-68
2022/08/09 07:00:14;;;;;;;0.00;0.00;;;17.60;99.90;;;;;;5039872;28;20159;-68
2022/08/09 07:02:40;;;;;;;0.00;0.00;;;17.70;99.90;;;;;;5037331;28;20060;-68
2022/08/09 07:05:06;;;;;;;0.15;0.15;;;17.80;99.90;;;;;;5038833;28;20073;-68
2022/08/09 07:07:32;;;;;;;0.10;0.10;;;17.80;99.90;;;;;;5042107;28;20069;-68
2022/08/09 07:09:58;;;;;;;0.08;0.08;;;17.90;99.90;;;;;;5043559;28;20135;-68
2022/08/09 07:12:24;;;;;;;0.03;0.03;;;17.90;99.90;;;;;;5042292;28;20112;-68
2022/08/09 07:14:49;;;;;;;0.08;0.08;;;18.00;99.90;;;;;;5044575;28;20044;-68
2022/08/09 07:17:15;;;;;;;0.10;0.10;;;18.00;99.90;;;;;;5026187;28;20079;-68
2022/08/09 07:19:41;;;;;;;0.10;0.10;;;18.00;99.90;;;;;;5043274;28;20055;-68
2022/08/09 07:22:07;;;;;;;0.00;0.00;;;18.10;99.90;;;;;;5043259;28;20049;-68
2022/08/09 07:24:33;;;;;;;0.00;0.00;;;18.10;99.90;;;;;;5033073;28;20049;-68
2022/08/09 07:27:00;;;;;;;0.00;0.00;;;18.10;99.90;;;;;;5033956;28;20041;-68
2022/08/09 07:29:26;;;;;;;0.10;0.10;;;18.20;99.90;;;;;;5036134;28;20060;-68
2022/08/09 07:31:52;;;;;;;0.20;0.20;;;18.30;99.90;;;;;;5054440;28;20400;-68
2022/08/09 07:34:18;;;;;;;0.10;0.10;;;18.40;99.90;;;;;;5052368;28;20057;-68
2022/08/09 07:36:43;;;;;;;0.00;0.00;;;18.40;99.90;;;;;;5031945;28;20041;-68
2022/08/09 07:39:09;;;;;;;0.00;0.00;;;18.60;99.90;;;;;;5036802;28;20052;-68
2022/08/09 07:41:35;;;;;;;0.20;0.20;;;18.50;99.90;;;;;;5040214;28;20037;-68
2022/08/09 07:44:00;;;;;;;0.00;0.00;;;18.60;99.90;;;;;;5054344;28;20112;-68
2022/08/09 07:46:26;;;;;;;0.00;0.00;;;18.70;99.90;;;;;;5048039;28;20043;-68
2022/08/09 07:48:52;;;;;;;0.00;0.00;;;18.80;99.90;;;;;;5033287;28;20056;-68
2022/08/09 07:51:17;;;;;;;0.00;0.00;;;18.90;99.90;;;;;;5042747;28;20044;-68
2022/08/09 07:53:43;;;;;;;0.00;0.00;;;19.00;99.90;;;;;;5033560;28;20897;-68
2022/08/09 07:56:09;;;;;;;0.00;0.00;;;19.10;99.90;;;;;;5040048;28;20404;-66
2022/08/09 07:58:34;;;;;;;0.10;0.10;;;19.20;99.90;;;;;;5041367;28;20485;-67
2022/08/09 08:01:00;;;;;;;0.00;0.00;;;19.10;99.90;;;;;;5047839;28;20135;-67
2022/08/09 08:03:25;;;;;;;0.00;0.00;;;19.20;99.90;;;;;;5048493;28;20076;-68
2022/08/09 08:05:51;;;;;;;0.15;0.15;;;19.30;99.90;;;;;;5054176;28;20043;-68
2022/08/09 08:08:17;;;;;;;0.00;0.00;;;19.40;99.90;;;;;;5038476;28;20069;-68
2022/08/09 08:10:43;;;;;;;0.00;0.00;;;19.50;99.90;;;;;;5054408;28;20048;-68
2022/08/09 08:13:09;;;;;;;0.05;0.05;;;19.50;99.90;;;;;;5037882;28;20110;-67
2022/08/09 08:15:35;;;;;;;0.00;0.00;;;19.50;99.90;;;;;;5033676;28;20045;-68
2022/08/09 08:18:00;;;;;;;0.03;0.03;;;19.60;99.90;;;;;;5039888;28;20044;-68
2022/08/09 08:20:28;;;;;;;0.20;0.20;;;19.70;99.90;;;;;;5050887;28;20044;-68
2022/08/09 08:22:54;;;;;;;0.10;0.10;;;19.70;99.90;;;;;;5056206;28;20485;-68
2022/08/09 08:25:19;;;;;;;0.10;0.10;;;19.80;99.90;;;;;;5045002;28;20084;-68
2022/08/09 08:27:45;;;;;;;0.05;0.05;;;19.90;99.90;;;;;;5050325;28;20041;-67
2022/08/09 08:30:17;;;;;;;0.10;0.10;;;20.00;99.90;;;;;;5053196;28;20056;-68
2022/08/09 08:32:43;;;;;;;0.08;0.08;;;20.10;99.90;;;;;;5055782;28;20949;-67
2022/08/09 08:35:09;;;;;;;0.00;0.00;;;20.10;99.90;;;;;;5043107;28;20083;-68
2022/08/09 08:37:34;;;;;;;0.10;0.10;;;20.20;99.90;;;;;;5047898;28;20060;-68
2022/08/09 08:40:01;;;;;;;0.08;0.08;;;20.20;99.90;;;;;;5048871;28;20403;-68
2022/08/09 08:42:28;;;;;;;0.00;0.00;;;20.30;99.90;;;;;;5040313;28;20045;-67
2022/08/09 08:44:56;;;;;;;0.00;0.00;;;20.30;99.90;;;;;;5048706;28;20450;-67
2022/08/09 08:47:24;;;;;;;0.00;0.00;;;20.50;99.90;;;;;;5044448;28;20044;-67
2022/08/09 08:49:50;;;;;;;0.00;0.00;;;20.60;99.90;;;;;;5037666;28;20103;-67
2022/08/09 08:52:19;;;;;;;0.00;0.00;;;20.70;99.90;;;;;;5045713;28;20473;-67
2022/08/09 08:54:45;;;;;;;0.00;0.00;;;20.70;99.90;;;;;;5032811;28;20041;-67
2022/08/09 08:57:11;;;;;;;0.00;0.00;;;20.80;99.90;;;;;;5035815;28;20037;-67
2022/08/09 08:59:36;;;;;;;0.00;0.00;;;20.90;99.90;;;;;;5049669;28;20045;-67
2022/08/09 09:02:03;;;;;;;0.00;0.00;;;20.90;99.90;;;;;;5041438;28;20512;-68
2022/08/09 09:04:31;;;;;;;0.00;0.00;;;21.00;99.90;;;;;;5034350;28;20072;-67
2022/08/09 09:07:00;;;;;;;0.00;0.00;;;21.20;99.90;;;;;;5041292;28;20068;-67
2022/08/09 09:09:27;;;;;;;0.08;0.08;;;21.20;99.90;;;;;;5049759;28;20102;-67
2022/08/09 09:11:54;;;;;;;0.13;0.13;;;21.00;99.90;;;;;;5049147;28;20558;-67
2022/08/09 09:14:23;;;;;;;0.00;0.00;;;21.10;99.90;;;;;;5057013;28;20049;-67
2022/08/09 09:16:49;;;;;;;0.00;0.00;;;21.30;99.90;;;;;;5035784;28;20550;-66
2022/08/09 09:19:14;;;;;;;0.20;0.20;;;21.50;99.90;;;;;;5037195;28;20049;-66
2022/08/09 09:22:02;;;;;;;0.10;0.10;;;21.80;99.90;;;;;;5049307;28;20055;-67
2022/08/09 09:24:30;;;;;;;0.10;0.10;;;22.40;99.90;;;;;;5050196;28;20131;-67
2022/08/09 09:26:57;;;;;;;0.00;0.00;;;22.60;99.90;;;;;;5044860;28;20064;-67
2022/08/09 09:29:39;;;;;;;0.00;0.00;;;22.50;99.90;;;;;;5032409;28;20551;-67
2022/08/09 09:32:04;;;;;;;0.10;0.10;;;22.10;99.90;;;;;;5044396;28;20064;-67
2022/08/09 09:34:32;;;;;;;0.00;0.00;;;22.00;99.90;;;;;;5045519;28;20040;-67
2022/08/09 09:36:59;;;;;;;0.00;0.00;;;22.40;99.90;;;;;;5035746;28;20045;-68
2022/08/09 09:39:28;;;;;;;0.10;0.10;;;23.00;99.90;;;;;;5040270;28;20059;-68
2022/08/09 09:41:55;;;;;;;0.00;0.00;;;23.70;99.90;;;;;;5045946;28;20370;-68
2022/08/09 09:44:31;;;;;;;0.00;0.00;;;23.70;99.90;;;;;;5033611;28;20087;-67
2022/08/09 09:47:03;;;;;;;0.10;0.10;;;23.50;99.90;;;;;;5031326;28;20041;-66
2022/08/09 09:49:29;;;;;;;0.00;0.00;;;23.20;99.90;;;;;;5045296;28;20052;-67
2022/08/09 09:52:07;;;;;;;0.20;0.15;;;23.30;99.90;;;;;;5048081;28;20040;-67
2022/08/09 09:54:38;;;;;;;0.10;0.10;;;23.50;99.90;;;;;;5047550;28;20496;-67
2022/08/09 09:57:22;;;;;;;0.08;0.08;;;23.50;99.90;;;;;;5034404;28;20402;-67
2022/08/09 09:59:53;;;;;;;0.30;0.28;;;23.70;99.90;;;;;;5033508;28;20049;-67
2022/08/09 10:02:19;;;;;;;0.10;0.10;;;23.50;99.90;;;;;;5029770;28;20762;-67
2022/08/09 10:05:00;;;;;;;0.00;0.00;;;23.40;99.90;;;;;;5029240;28;20053;-67
2022/08/09 10:07:27;;;;;;;0.00;0.00;;;23.20;99.90;;;;;;5028990;28;20041;-67
2022/08/09 10:09:55;;;;;;;0.00;0.00;;;23.10;99.90;;;;;;5038405;28;20132;-67
2022/08/09 10:12:37;;;;;;;0.00;0.00;;;22.70;99.90;;;;;;5044347;28;20068;-67
2022/08/09 10:15:14;;;;;;;0.00;0.00;;;22.40;99.90;;;;;;5046112;28;20162;-67
2022/08/09 10:17:50;;;;;;;0.15;0.15;;;22.10;99.90;;;;;;5039042;28;20044;-67
2022/08/09 10:20:18;;;;;;;0.00;0.00;;;21.90;99.90;;;;;;5044442;28;20049;-67
2022/08/09 10:22:45;;;;;;;0.10;0.10;;;21.90;99.90;;;;;;5041364;28;20041;-67
2022/08/09 10:25:12;;;;;;;1.27;1.02;;;22.20;99.90;;;;;;5046944;28;20052;-67
2022/08/09 10:27:38;;;;;;;0.57;0.52;;;22.50;99.90;;;;;;5031957;28;20532;-67
2022/08/09 10:30:06;;;;;;;0.13;0.13;;;22.40;99.90;;;;;;5042281;28;20536;-68
2022/08/09 10:32:35;;;;;;;0.00;0.00;;;22.70;99.90;;;;;;5047938;28;20174;-67
2022/08/09 10:35:02;;;;;;;0.10;0.10;;;23.20;99.90;;;;;;5045950;28;20041;-67
2022/08/09 10:37:28;;;;;;;0.00;0.00;;;23.70;99.90;;;;;;5029840;28;20056;-67
2022/08/09 10:39:54;;;;;;;0.00;0.00;;;24.00;99.90;;;;;;5039007;28;20468;-68
2022/08/09 10:42:21;;;;;;;0.00;0.00;;;23.80;99.90;;;;;;5033489;28;20421;-67
2022/08/09 10:44:58;;;;;;;0.10;0.10;;;23.50;99.90;;;;;;5036998;28;20389;-67
2022/08/09 10:47:56;;;;;;;0.00;0.00;;;23.70;99.90;;;;;;5027063;28;20120;-68
2022/08/09 10:53:42;;;;;;;0.75;0.52;;;24.20;99.90;;;;;;5046414;28;20115;-68
2022/08/09 10:56:22;;;;;;;0.00;0.00;;;24.10;99.90;;;;;;5045453;28;20068;-67
2022/08/09 10:58:49;;;;;;;0.00;0.00;;;24.20;99.90;;;;;;5032477;28;20045;-68
2022/08/09 11:01:34;;;;;;;0.00;0.00;;;24.30;99.90;;;;;;5027309;28;20053;-67
2022/08/09 11:04:38;;;;;;;0.00;0.00;;;24.10;99.90;;;;;;5027634;28;20673;-67
2022/08/09 11:07:03;;;;;;;0.00;0.00;;;24.00;99.90;;;;;;5030440;28;20037;-67
2022/08/09 11:09:41;;;;;;;0.10;0.10;;;24.10;99.90;;;;;;5045178;28;20464;-67
2022/08/09 11:12:28;;;;;;;0.00;0.00;;;24.20;99.90;;;;;;5031142;28;20047;-67
2022/08/09 11:15:00;;;;;;;0.00;0.00;;;24.30;99.90;;;;;;5037946;28;20049;-67
2022/08/09 11:17:25;;;;;;;0.00;0.00;;;24.20;99.90;;;;;;5028847;28;20045;-67
2022/08/09 11:19:55;;;;;;;0.00;0.00;;;24.00;99.90;;;;;;5036432;28;20052;-67
2022/08/09 11:22:42;;;;;;;0.17;0.17;;;23.80;99.90;;;;;;5037169;28;20052;-67
2022/08/09 11:25:17;;;;;;;0.20;0.20;;;23.70;99.90;;;;;;5042845;28;20049;-67
2022/08/09 11:27:44;;;;;;;0.00;0.00;;;23.50;99.90;;;;;;5044575;28;20484;-67
2022/08/09 11:30:11;;;;;;;0.00;0.00;;;23.40;99.90;;;;;;5039255;28;20045;-67
2022/08/09 11:32:41;;;;;;;0.00;0.00;;;23.30;99.90;;;;;;5057010;28;20164;-67
2022/08/09 11:35:18;;;;;;;0.32;0.28;;;23.20;99.90;;;;;;5047073;28;20045;-67
2022/08/09 11:37:47;;;;;;;0.10;0.10;;;23.20;99.90;;;;;;5042451;28;20045;-67
2022/08/09 11:40:15;;;;;;;0.00;0.00;;;23.20;99.90;;;;;;5040150;28;20476;-67
2022/08/09 11:42:47;;;;;;;0.00;0.00;;;23.20;99.90;;;;;;5038870;28;20053;-67
2022/08/09 11:45:39;;;;;;;0.00;0.00;;;23.80;99.90;;;;;;5037341;28;20083;-68
2022/08/09 11:48:10;;;;;;;0.00;0.00;;;23.70;99.90;;;;;;5040618;28;20053;-67
2022/08/09 11:50:56;;;;;;;0.03;0.03;;;24.20;99.90;;;;;;5033126;28;20375;-67
2022/08/09 11:53:33;;;;;;;0.00;0.00;;;24.80;99.90;;;;;;5035567;28;20049;-68
2022/08/09 11:56:15;;;;;;;0.10;0.10;;;25.20;99.90;;;;;;5034959;28;20385;-67
2022/08/09 11:58:41;;;;;;;0.00;0.00;;;25.30;99.90;;;;;;5039863;28;20057;-67
2022/08/09 12:01:07;;;;;;;0.28;0.17;;;25.30;99.90;;;;;;5036436;28;20498;-67
2022/08/09 12:03:33;;;;;;;0.00;0.00;;;25.20;99.90;;;;;;5047408;28;20091;-67
2022/08/09 12:06:01;;;;;;;0.00;0.00;;;24.70;99.90;;;;;;5040936;28;20040;-67
2022/08/09 12:08:28;;;;;;;0.00;0.00;;;24.90;99.90;;;;;;5045003;28;20044;-67
2022/08/09 12:10:58;;;;;;;0.00;0.00;;;25.10;99.90;;;;;;5037570;28;20083;-67
2022/08/09 12:13:38;;;;;;;0.00;0.00;;;25.20;99.90;;;;;;5045576;28;20114;-67
2022/08/09 12:16:10;;;;;;;0.00;0.00;;;25.90;99.90;;;;;;5049783;28;20052;-68
2022/08/09 12:18:38;;;;;;;0.00;0.00;;;25.90;99.90;;;;;;5045937;28;20488;-67
2022/08/09 12:21:06;;;;;;;0.00;0.00;;;26.00;99.90;;;;;;5049972;28;20107;-67
2022/08/09 12:23:33;;;;;;;0.00;0.00;;;26.00;99.90;;;;;;5044985;28;20044;-67
2022/08/09 12:25:59;;;;;;;0.00;0.00;;;26.20;99.90;;;;;;5034593;28;20048;-67
2022/08/09 12:28:26;;;;;;;0.10;0.10;;;26.60;99.90;;;;;;5049471;28;20037;-67
2022/08/09 12:30:52;;;;;;;0.00;0.00;;;26.60;99.90;;;;;;5033751;28;20409;-67
2022/08/09 12:33:19;;;;;;;0.00;0.00;;;26.80;99.90;;;;;;5033120;28;20664;-67
2022/08/09 12:35:46;;;;;;;0.00;0.00;;;26.70;99.90;;;;;;5045279;28;20072;-67
2022/08/09 12:38:29;;;;;;;0.00;0.00;;;26.80;99.90;;;;;;5049389;28;20047;-67
2022/08/09 12:40:56;;;;;;;0.10;0.10;;;27.10;99.90;;;;;;5030682;28;20092;-68
2022/08/09 12:43:27;;;;;;;0.00;0.00;;;27.10;99.90;;;;;;5036103;28;20046;-67
2022/08/09 12:45:54;;;;;;;0.00;0.00;;;27.20;99.90;;;;;;5047910;28;20094;-68
2022/08/09 12:48:22;;;;;;;0.00;0.00;;;27.20;99.90;;;;;;5042898;28;20037;-68
2022/08/09 12:50:49;;;;;;;0.00;0.00;;;27.30;99.90;;;;;;5040333;28;20459;-67
2022/08/09 12:53:25;;;;;;;0.00;0.00;;;27.40;99.90;;;;;;5043734;28;20094;-67
2022/08/09 12:55:51;;;;;;;0.00;0.00;;;27.60;99.90;;;;;;5034080;28;20723;-67
2022/08/09 12:58:16;;;;;;;0.00;0.00;;;27.50;99.90;;;;;;5030296;28;20038;-67